sensor_id;sensor_type;location;lat;lon;timestamp;P1;durP1;ratioP1;P2;durP2;ratioP2
39020;SDS011;25188;51.958;5.842;2023-04-15T00:00:48;7.50;;;3.27;;
39020;SDS011;25188;51.958;5.842;2023-04-15T00:03:16;8.87;;;3.47;;
39020;SDS011;25188;51.958;5.842;2023-04-15T00:05:41;9.03;;;3.70;;
39020;SDS011;25188;51.958;5.842;2023-04-15T00:08:07;9.07;;;3.53;;
39020;SDS011;25188;51.958;5.842;2023-04-15T00:10:33;8.80;;;3.53;;
39020;SDS011;25188;51.958;5.842;2023-04-15T00:12:58;6.50;;;3.50;;
39020;SDS011;25188;51.958;5.842;2023-04-15T00:15:24;6.83;;;3.20;;
39020;SDS011;25188;51.958;5.842;2023-04-15T00:17:52;7.27;;;3.40;;
39020;SDS011;25188;51.958;5.842;2023-04-15T00:20:18;10.83;;;4.17;;
39020;SDS011;25188;51.958;5.842;2023-04-15T00:22:43;8.80;;;3.60;;
39020;SDS011;25188;51.958;5.842;2023-04-15T00:25:10;8.07;;;3.60;;
39020;SDS011;25188;51.958;5.842;2023-04-15T00:27:36;8.33;;;3.17;;
39020;SDS011;25188;51.958;5.842;2023-04-15T00:30:02;8.03;;;3.73;;
39020;SDS011;25188;51.958;5.842;2023-04-15T00:32:29;8.30;;;3.80;;
39020;SDS011;25188;51.958;5.842;2023-04-15T00:34:55;10.87;;;4.57;;
39020;SDS011;25188;51.958;5.842;2023-04-15T00:37:21;5.90;;;3.27;;
39020;SDS011;25188;51.958;5.842;2023-04-15T00:39:47;7.40;;;3.47;;
39020;SDS011;25188;51.958;5.842;2023-04-15T00:42:13;7.30;;;3.50;;
39020;SDS011;25188;51.958;5.842;2023-04-15T00:44:39;10.47;;;3.70;;
39020;SDS011;25188;51.958;5.842;2023-04-15T00:47:05;6.50;;;4.00;;
39020;SDS011;25188;51.958;5.842;2023-04-15T00:49:32;9.30;;;3.43;;
39020;SDS011;25188;51.958;5.842;2023-04-15T00:51:58;8.57;;;4.27;;
39020;SDS011;25188;51.958;5.842;2023-04-15T00:54:24;8.47;;;4.23;;
39020;SDS011;25188;51.958;5.842;2023-04-15T00:56:49;7.30;;;3.57;;
39020;SDS011;25188;51.958;5.842;2023-04-15T00:59:16;9.87;;;3.80;;
39020;SDS011;25188;51.958;5.842;2023-04-15T01:01:42;9.93;;;3.93;;
39020;SDS011;25188;51.958;5.842;2023-04-15T01:04:09;8.53;;;3.07;;
39020;SDS011;25188;51.958;5.842;2023-04-15T01:06:36;7.00;;;3.57;;
39020;SDS011;25188;51.958;5.842;2023-04-15T01:09:02;8.10;;;3.83;;
39020;SDS011;25188;51.958;5.842;2023-04-15T01:11:27;7.23;;;3.57;;
39020;SDS011;25188;51.958;5.842;2023-04-15T01:13:54;15.33;;;4.00;;
39020;SDS011;25188;51.958;5.842;2023-04-15T01:16:22;6.83;;;3.57;;
39020;SDS011;25188;51.958;5.842;2023-04-15T01:18:48;7.87;;;3.27;;
39020;SDS011;25188;51.958;5.842;2023-04-15T01:21:14;9.63;;;3.97;;
39020;SDS011;25188;51.958;5.842;2023-04-15T01:23:39;8.37;;;3.20;;
39020;SDS011;25188;51.958;5.842;2023-04-15T01:26:06;7.83;;;3.87;;
39020;SDS011;25188;51.958;5.842;2023-04-15T01:28:33;7.67;;;3.83;;
39020;SDS011;25188;51.958;5.842;2023-04-15T01:31:06;6.77;;;3.37;;
39020;SDS011;25188;51.958;5.842;2023-04-15T01:33:33;7.43;;;4.20;;
39020;SDS011;25188;51.958;5.842;2023-04-15T01:35:58;6.37;;;3.13;;
39020;SDS011;25188;51.958;5.842;2023-04-15T01:38:25;7.70;;;4.00;;
39020;SDS011;25188;51.958;5.842;2023-04-15T01:40:51;7.73;;;3.50;;
39020;SDS011;25188;51.958;5.842;2023-04-15T01:43:17;9.90;;;3.90;;
39020;SDS011;25188;51.958;5.842;2023-04-15T01:45:43;7.40;;;3.80;;
39020;SDS011;25188;51.958;5.842;2023-04-15T01:48:09;6.43;;;3.60;;
39020;SDS011;25188;51.958;5.842;2023-04-15T01:50:36;7.33;;;3.80;;
39020;SDS011;25188;51.958;5.842;2023-04-15T01:53:02;10.90;;;4.43;;
39020;SDS011;25188;51.958;5.842;2023-04-15T01:55:28;8.67;;;3.93;;
39020;SDS011;25188;51.958;5.842;2023-04-15T01:57:54;8.30;;;4.10;;
39020;SDS011;25188;51.958;5.842;2023-04-15T02:00:21;7.23;;;3.60;;
39020;SDS011;25188;51.958;5.842;2023-04-15T02:02:47;7.33;;;4.23;;
39020;SDS011;25188;51.958;5.842;2023-04-15T02:05:13;8.70;;;3.97;;
39020;SDS011;25188;51.958;5.842;2023-04-15T02:07:40;9.57;;;4.30;;
39020;SDS011;25188;51.958;5.842;2023-04-15T02:10:08;8.43;;;4.33;;
39020;SDS011;25188;51.958;5.842;2023-04-15T02:12:34;6.67;;;3.90;;
39020;SDS011;25188;51.958;5.842;2023-04-15T02:15:00;10.87;;;4.97;;
39020;SDS011;25188;51.958;5.842;2023-04-15T02:17:26;10.47;;;3.83;;
39020;SDS011;25188;51.958;5.842;2023-04-15T02:19:51;13.77;;;3.80;;
39020;SDS011;25188;51.958;5.842;2023-04-15T02:22:17;7.57;;;3.87;;
39020;SDS011;25188;51.958;5.842;2023-04-15T02:24:43;8.73;;;4.73;;
39020;SDS011;25188;51.958;5.842;2023-04-15T02:27:10;7.97;;;3.53;;
39020;SDS011;25188;51.958;5.842;2023-04-15T02:29:40;7.77;;;3.53;;
39020;SDS011;25188;51.958;5.842;2023-04-15T02:32:06;7.60;;;4.13;;
39020;SDS011;25188;51.958;5.842;2023-04-15T02:34:32;9.37;;;4.33;;
39020;SDS011;25188;51.958;5.842;2023-04-15T02:36:57;9.23;;;4.57;;
39020;SDS011;25188;51.958;5.842;2023-04-15T02:39:23;10.60;;;4.83;;
39020;SDS011;25188;51.958;5.842;2023-04-15T02:41:49;9.53;;;4.43;;
39020;SDS011;25188;51.958;5.842;2023-04-15T02:44:17;8.80;;;4.70;;
39020;SDS011;25188;51.958;5.842;2023-04-15T02:46:47;8.23;;;4.60;;
39020;SDS011;25188;51.958;5.842;2023-04-15T02:49:16;10.97;;;4.00;;
39020;SDS011;25188;51.958;5.842;2023-04-15T02:51:42;8.13;;;5.13;;
39020;SDS011;25188;51.958;5.842;2023-04-15T02:54:09;9.40;;;4.90;;
39020;SDS011;25188;51.958;5.842;2023-04-15T02:56:34;8.47;;;4.60;;
39020;SDS011;25188;51.958;5.842;2023-04-15T02:59:00;7.37;;;4.23;;
39020;SDS011;25188;51.958;5.842;2023-04-15T03:01:26;10.87;;;4.37;;
39020;SDS011;25188;51.958;5.842;2023-04-15T03:03:51;9.17;;;4.47;;
39020;SDS011;25188;51.958;5.842;2023-04-15T03:06:17;8.57;;;4.70;;
39020;SDS011;25188;51.958;5.842;2023-04-15T03:08:43;10.40;;;4.33;;
39020;SDS011;25188;51.958;5.842;2023-04-15T03:11:09;8.97;;;4.57;;
39020;SDS011;25188;51.958;5.842;2023-04-15T03:13:34;8.63;;;4.97;;
39020;SDS011;25188;51.958;5.842;2023-04-15T03:16:00;12.57;;;5.47;;
39020;SDS011;25188;51.958;5.842;2023-04-15T03:18:26;8.97;;;4.63;;
39020;SDS011;25188;51.958;5.842;2023-04-15T03:20:53;11.97;;;4.83;;
39020;SDS011;25188;51.958;5.842;2023-04-15T03:23:18;11.93;;;5.37;;
39020;SDS011;25188;51.958;5.842;2023-04-15T03:25:44;8.83;;;4.43;;
39020;SDS011;25188;51.958;5.842;2023-04-15T03:28:10;8.80;;;4.60;;
39020;SDS011;25188;51.958;5.842;2023-04-15T03:30:36;10.30;;;5.17;;
39020;SDS011;25188;51.958;5.842;2023-04-15T03:33:02;8.37;;;5.27;;
39020;SDS011;25188;51.958;5.842;2023-04-15T03:35:27;7.47;;;4.67;;
39020;SDS011;25188;51.958;5.842;2023-04-15T03:37:53;9.77;;;4.77;;
39020;SDS011;25188;51.958;5.842;2023-04-15T03:40:19;8.50;;;4.83;;
39020;SDS011;25188;51.958;5.842;2023-04-15T03:42:45;9.33;;;5.20;;
39020;SDS011;25188;51.958;5.842;2023-04-15T03:45:12;8.87;;;5.03;;
39020;SDS011;25188;51.958;5.842;2023-04-15T03:47:38;8.27;;;4.77;;
39020;SDS011;25188;51.958;5.842;2023-04-15T03:50:04;10.13;;;5.10;;
39020;SDS011;25188;51.958;5.842;2023-04-15T03:52:30;9.97;;;5.30;;
39020;SDS011;25188;51.958;5.842;2023-04-15T03:54:55;13.87;;;5.93;;
39020;SDS011;25188;51.958;5.842;2023-04-15T03:57:21;9.10;;;5.23;;
39020;SDS011;25188;51.958;5.842;2023-04-15T03:59:47;9.53;;;5.60;;
39020;SDS011;25188;51.958;5.842;2023-04-15T04:02:13;8.60;;;5.10;;
39020;SDS011;25188;51.958;5.842;2023-04-15T04:04:39;8.97;;;5.10;;
39020;SDS011;25188;51.958;5.842;2023-04-15T04:07:04;11.43;;;5.70;;
39020;SDS011;25188;51.958;5.842;2023-04-15T04:09:30;10.10;;;5.73;;
39020;SDS011;25188;51.958;5.842;2023-04-15T04:11:56;9.97;;;5.37;;
39020;SDS011;25188;51.958;5.842;2023-04-15T04:14:21;12.20;;;5.63;;
39020;SDS011;25188;51.958;5.842;2023-04-15T04:16:53;9.77;;;5.07;;
39020;SDS011;25188;51.958;5.842;2023-04-15T04:19:19;10.73;;;5.53;;
39020;SDS011;25188;51.958;5.842;2023-04-15T04:21:44;12.03;;;5.43;;
39020;SDS011;25188;51.958;5.842;2023-04-15T04:24:10;9.80;;;5.33;;
39020;SDS011;25188;51.958;5.842;2023-04-15T04:26:36;10.37;;;5.70;;
39020;SDS011;25188;51.958;5.842;2023-04-15T04:29:02;9.43;;;6.07;;
39020;SDS011;25188;51.958;5.842;2023-04-15T04:31:27;10.93;;;5.57;;
39020;SDS011;25188;51.958;5.842;2023-04-15T04:33:53;9.80;;;5.83;;
39020;SDS011;25188;51.958;5.842;2023-04-15T04:36:19;10.50;;;5.60;;
39020;SDS011;25188;51.958;5.842;2023-04-15T04:38:44;9.27;;;5.40;;
39020;SDS011;25188;51.958;5.842;2023-04-15T04:41:10;10.33;;;5.80;;
39020;SDS011;25188;51.958;5.842;2023-04-15T04:43:36;9.57;;;5.80;;
39020;SDS011;25188;51.958;5.842;2023-04-15T04:46:01;10.93;;;5.70;;
39020;SDS011;25188;51.958;5.842;2023-04-15T04:48:27;10.37;;;6.37;;
39020;SDS011;25188;51.958;5.842;2023-04-15T04:50:52;10.33;;;6.17;;
39020;SDS011;25188;51.958;5.842;2023-04-15T04:53:18;12.93;;;6.60;;
39020;SDS011;25188;51.958;5.842;2023-04-15T04:55:44;11.43;;;6.57;;
39020;SDS011;25188;51.958;5.842;2023-04-15T04:58:10;12.03;;;6.90;;
39020;SDS011;25188;51.958;5.842;2023-04-15T05:00:35;10.90;;;5.63;;
39020;SDS011;25188;51.958;5.842;2023-04-15T05:03:02;10.73;;;6.57;;
39020;SDS011;25188;51.958;5.842;2023-04-15T05:05:28;11.60;;;6.10;;
39020;SDS011;25188;51.958;5.842;2023-04-15T05:07:54;13.77;;;6.33;;
39020;SDS011;25188;51.958;5.842;2023-04-15T05:10:19;11.47;;;6.73;;
39020;SDS011;25188;51.958;5.842;2023-04-15T05:12:45;13.33;;;6.77;;
39020;SDS011;25188;51.958;5.842;2023-04-15T05:15:11;11.50;;;6.73;;
39020;SDS011;25188;51.958;5.842;2023-04-15T05:17:36;12.73;;;7.87;;
39020;SDS011;25188;51.958;5.842;2023-04-15T05:20:02;10.20;;;6.77;;
39020;SDS011;25188;51.958;5.842;2023-04-15T05:22:28;12.87;;;7.33;;
39020;SDS011;25188;51.958;5.842;2023-04-15T05:24:54;10.90;;;6.33;;
39020;SDS011;25188;51.958;5.842;2023-04-15T05:27:20;13.57;;;7.53;;
39020;SDS011;25188;51.958;5.842;2023-04-15T05:29:46;12.50;;;7.10;;
39020;SDS011;25188;51.958;5.842;2023-04-15T05:32:12;11.33;;;7.00;;
39020;SDS011;25188;51.958;5.842;2023-04-15T05:34:38;13.80;;;7.03;;
39020;SDS011;25188;51.958;5.842;2023-04-15T05:37:03;12.03;;;7.43;;
39020;SDS011;25188;51.958;5.842;2023-04-15T05:39:29;15.87;;;7.60;;
39020;SDS011;25188;51.958;5.842;2023-04-15T05:41:56;13.23;;;7.43;;
39020;SDS011;25188;51.958;5.842;2023-04-15T05:44:22;11.40;;;6.97;;
39020;SDS011;25188;51.958;5.842;2023-04-15T05:46:48;14.00;;;7.80;;
39020;SDS011;25188;51.958;5.842;2023-04-15T05:49:13;13.37;;;7.70;;
39020;SDS011;25188;51.958;5.842;2023-04-15T05:51:39;12.27;;;7.20;;
39020;SDS011;25188;51.958;5.842;2023-04-15T05:54:05;10.33;;;6.43;;
39020;SDS011;25188;51.958;5.842;2023-04-15T05:56:31;14.33;;;6.80;;
39020;SDS011;25188;51.958;5.842;2023-04-15T05:58:56;11.50;;;7.07;;
39020;SDS011;25188;51.958;5.842;2023-04-15T06:01:22;16.87;;;8.63;;
39020;SDS011;25188;51.958;5.842;2023-04-15T06:03:48;12.13;;;7.23;;
39020;SDS011;25188;51.958;5.842;2023-04-15T06:06:14;14.23;;;7.87;;
39020;SDS011;25188;51.958;5.842;2023-04-15T06:08:39;11.83;;;6.77;;
39020;SDS011;25188;51.958;5.842;2023-04-15T06:11:05;14.70;;;7.80;;
39020;SDS011;25188;51.958;5.842;2023-04-15T06:13:31;11.50;;;7.03;;
39020;SDS011;25188;51.958;5.842;2023-04-15T06:15:57;13.07;;;8.17;;
39020;SDS011;25188;51.958;5.842;2023-04-15T06:18:23;12.47;;;7.57;;
39020;SDS011;25188;51.958;5.842;2023-04-15T06:20:49;13.30;;;8.17;;
39020;SDS011;25188;51.958;5.842;2023-04-15T06:23:15;12.13;;;6.93;;
39020;SDS011;25188;51.958;5.842;2023-04-15T06:25:41;14.23;;;8.50;;
39020;SDS011;25188;51.958;5.842;2023-04-15T06:28:06;15.30;;;8.27;;
39020;SDS011;25188;51.958;5.842;2023-04-15T06:30:33;14.53;;;8.17;;
39020;SDS011;25188;51.958;5.842;2023-04-15T06:32:59;13.87;;;8.20;;
39020;SDS011;25188;51.958;5.842;2023-04-15T06:35:27;12.67;;;7.43;;
39020;SDS011;25188;51.958;5.842;2023-04-15T06:37:52;14.40;;;8.20;;
39020;SDS011;25188;51.958;5.842;2023-04-15T06:40:18;16.27;;;8.60;;
39020;SDS011;25188;51.958;5.842;2023-04-15T06:42:44;12.53;;;7.03;;
39020;SDS011;25188;51.958;5.842;2023-04-15T06:45:10;16.53;;;8.93;;
39020;SDS011;25188;51.958;5.842;2023-04-15T06:47:36;12.33;;;7.83;;
39020;SDS011;25188;51.958;5.842;2023-04-15T06:50:01;11.13;;;7.03;;
39020;SDS011;25188;51.958;5.842;2023-04-15T06:52:28;11.17;;;7.20;;
39020;SDS011;25188;51.958;5.842;2023-04-15T06:54:53;11.80;;;7.90;;
39020;SDS011;25188;51.958;5.842;2023-04-15T06:57:19;11.97;;;7.10;;
39020;SDS011;25188;51.958;5.842;2023-04-15T06:59:45;11.37;;;6.43;;
39020;SDS011;25188;51.958;5.842;2023-04-15T07:02:11;12.20;;;6.17;;
39020;SDS011;25188;51.958;5.842;2023-04-15T07:04:38;15.30;;;7.40;;
39020;SDS011;25188;51.958;5.842;2023-04-15T07:07:04;13.53;;;7.67;;
39020;SDS011;25188;51.958;5.842;2023-04-15T07:09:30;13.03;;;7.23;;
39020;SDS011;25188;51.958;5.842;2023-04-15T07:11:56;14.97;;;8.43;;
39020;SDS011;25188;51.958;5.842;2023-04-15T07:14:22;15.50;;;8.30;;
39020;SDS011;25188;51.958;5.842;2023-04-15T07:16:47;14.70;;;8.40;;
39020;SDS011;25188;51.958;5.842;2023-04-15T07:19:13;13.13;;;6.77;;
39020;SDS011;25188;51.958;5.842;2023-04-15T07:21:39;11.70;;;7.23;;
39020;SDS011;25188;51.958;5.842;2023-04-15T07:24:04;14.43;;;7.03;;
39020;SDS011;25188;51.958;5.842;2023-04-15T07:26:30;13.03;;;7.33;;
39020;SDS011;25188;51.958;5.842;2023-04-15T07:28:56;11.13;;;6.83;;
39020;SDS011;25188;51.958;5.842;2023-04-15T07:31:21;9.10;;;5.87;;
39020;SDS011;25188;51.958;5.842;2023-04-15T07:33:47;9.87;;;5.73;;
39020;SDS011;25188;51.958;5.842;2023-04-15T07:36:13;9.47;;;6.23;;
39020;SDS011;25188;51.958;5.842;2023-04-15T07:38:39;9.50;;;5.83;;
39020;SDS011;25188;51.958;5.842;2023-04-15T07:41:05;10.40;;;5.60;;
39020;SDS011;25188;51.958;5.842;2023-04-15T07:43:30;10.43;;;6.03;;
39020;SDS011;25188;51.958;5.842;2023-04-15T07:45:56;10.87;;;6.30;;
39020;SDS011;25188;51.958;5.842;2023-04-15T07:48:22;10.03;;;6.13;;
39020;SDS011;25188;51.958;5.842;2023-04-15T07:50:47;8.37;;;4.67;;
39020;SDS011;25188;51.958;5.842;2023-04-15T07:53:13;9.73;;;5.70;;
39020;SDS011;25188;51.958;5.842;2023-04-15T07:55:39;12.57;;;6.43;;
39020;SDS011;25188;51.958;5.842;2023-04-15T07:58:05;12.67;;;6.67;;
39020;SDS011;25188;51.958;5.842;2023-04-15T08:00:31;12.97;;;6.10;;
39020;SDS011;25188;51.958;5.842;2023-04-15T08:02:56;10.63;;;5.93;;
39020;SDS011;25188;51.958;5.842;2023-04-15T08:05:23;10.23;;;6.23;;
39020;SDS011;25188;51.958;5.842;2023-04-15T08:07:49;12.93;;;6.73;;
39020;SDS011;25188;51.958;5.842;2023-04-15T08:10:15;10.93;;;6.20;;
39020;SDS011;25188;51.958;5.842;2023-04-15T08:12:41;13.60;;;7.10;;
39020;SDS011;25188;51.958;5.842;2023-04-15T08:15:07;11.60;;;7.30;;
39020;SDS011;25188;51.958;5.842;2023-04-15T08:17:33;10.70;;;6.73;;
39020;SDS011;25188;51.958;5.842;2023-04-15T08:19:59;10.40;;;6.37;;
39020;SDS011;25188;51.958;5.842;2023-04-15T08:22:25;9.53;;;6.23;;
39020;SDS011;25188;51.958;5.842;2023-04-15T08:24:51;9.50;;;6.00;;
39020;SDS011;25188;51.958;5.842;2023-04-15T08:27:17;10.60;;;5.70;;
39020;SDS011;25188;51.958;5.842;2023-04-15T08:29:43;9.10;;;5.47;;
39020;SDS011;25188;51.958;5.842;2023-04-15T08:32:09;9.43;;;5.30;;
39020;SDS011;25188;51.958;5.842;2023-04-15T08:34:35;7.63;;;4.80;;
39020;SDS011;25188;51.958;5.842;2023-04-15T08:37:01;8.53;;;4.10;;
39020;SDS011;25188;51.958;5.842;2023-04-15T08:39:26;6.83;;;3.20;;
39020;SDS011;25188;51.958;5.842;2023-04-15T08:41:57;5.63;;;3.07;;
39020;SDS011;25188;51.958;5.842;2023-04-15T08:44:32;5.63;;;3.15;;
39020;SDS011;25188;51.958;5.842;2023-04-15T08:47:01;5.55;;;2.65;;
39020;SDS011;25188;51.958;5.842;2023-04-15T08:49:29;4.18;;;2.55;;
39020;SDS011;25188;51.958;5.842;2023-04-15T08:51:57;4.97;;;2.22;;
39020;SDS011;25188;51.958;5.842;2023-04-15T08:54:23;4.57;;;2.17;;
39020;SDS011;25188;51.958;5.842;2023-04-15T08:56:51;8.35;;;2.45;;
39020;SDS011;25188;51.958;5.842;2023-04-15T08:59:16;4.60;;;1.90;;
39020;SDS011;25188;51.958;5.842;2023-04-15T09:01:42;3.65;;;1.63;;
39020;SDS011;25188;51.958;5.842;2023-04-15T09:04:08;4.32;;;2.13;;
39020;SDS011;25188;51.958;5.842;2023-04-15T09:06:35;5.80;;;2.00;;
39020;SDS011;25188;51.958;5.842;2023-04-15T09:09:04;4.50;;;2.10;;
39020;SDS011;25188;51.958;5.842;2023-04-15T09:11:30;5.78;;;2.28;;
39020;SDS011;25188;51.958;5.842;2023-04-15T09:13:55;4.07;;;1.90;;
39020;SDS011;25188;51.958;5.842;2023-04-15T09:16:21;4.07;;;2.15;;
39020;SDS011;25188;51.958;5.842;2023-04-15T09:18:47;3.28;;;1.73;;
39020;SDS011;25188;51.958;5.842;2023-04-15T09:21:14;6.00;;;2.03;;
39020;SDS011;25188;51.958;5.842;2023-04-15T09:23:53;4.68;;;2.10;;
39020;SDS011;25188;51.958;5.842;2023-04-15T09:26:34;4.10;;;2.33;;
39020;SDS011;25188;51.958;5.842;2023-04-15T09:29:07;5.28;;;2.17;;
39020;SDS011;25188;51.958;5.842;2023-04-15T09:31:35;5.25;;;2.50;;
39020;SDS011;25188;51.958;5.842;2023-04-15T09:34:01;7.70;;;2.05;;
39020;SDS011;25188;51.958;5.842;2023-04-15T09:36:27;7.00;;;2.63;;
39020;SDS011;25188;51.958;5.842;2023-04-15T09:38:57;5.95;;;2.80;;
39020;SDS011;25188;51.958;5.842;2023-04-15T09:41:24;3.78;;;2.03;;
39020;SDS011;25188;51.958;5.842;2023-04-15T09:43:50;6.40;;;2.03;;
39020;SDS011;25188;51.958;5.842;2023-04-15T09:46:16;6.53;;;2.60;;
39020;SDS011;25188;51.958;5.842;2023-04-15T09:48:42;4.78;;;1.85;;
39020;SDS011;25188;51.958;5.842;2023-04-15T09:51:08;4.60;;;1.95;;
39020;SDS011;25188;51.958;5.842;2023-04-15T09:53:34;5.30;;;1.60;;
39020;SDS011;25188;51.958;5.842;2023-04-15T09:56:01;3.92;;;1.83;;
39020;SDS011;25188;51.958;5.842;2023-04-15T09:58:28;3.80;;;1.92;;
39020;SDS011;25188;51.958;5.842;2023-04-15T10:00:56;5.78;;;2.20;;
39020;SDS011;25188;51.958;5.842;2023-04-15T10:03:23;6.13;;;1.80;;
39020;SDS011;25188;51.958;5.842;2023-04-15T10:05:54;4.78;;;1.67;;
39020;SDS011;25188;51.958;5.842;2023-04-15T10:08:28;3.13;;;1.50;;
39020;SDS011;25188;51.958;5.842;2023-04-15T10:13:22;5.10;;;1.60;;
39020;SDS011;25188;51.958;5.842;2023-04-15T10:18:55;3.05;;;1.30;;
39020;SDS011;25188;51.958;5.842;2023-04-15T10:21:21;3.60;;;1.65;;
39020;SDS011;25188;51.958;5.842;2023-04-15T10:23:47;2.75;;;1.30;;
39020;SDS011;25188;51.958;5.842;2023-04-15T10:26:14;2.92;;;1.15;;
39020;SDS011;25188;51.958;5.842;2023-04-15T10:28:41;3.50;;;1.20;;
39020;SDS011;25188;51.958;5.842;2023-04-15T10:31:07;2.60;;;1.17;;
39020;SDS011;25188;51.958;5.842;2023-04-15T10:33:35;3.28;;;1.30;;
39020;SDS011;25188;51.958;5.842;2023-04-15T10:36:03;1.83;;;0.90;;
39020;SDS011;25188;51.958;5.842;2023-04-15T10:38:34;3.72;;;1.25;;
39020;SDS011;25188;51.958;5.842;2023-04-15T10:41:17;4.30;;;0.88;;
39020;SDS011;25188;51.958;5.842;2023-04-15T10:43:52;2.85;;;1.00;;
39020;SDS011;25188;51.958;5.842;2023-04-15T10:49:12;2.53;;;0.90;;
39020;SDS011;25188;51.958;5.842;2023-04-15T10:51:40;3.05;;;0.90;;
39020;SDS011;25188;51.958;5.842;2023-04-15T10:54:11;3.90;;;1.25;;
39020;SDS011;25188;51.958;5.842;2023-04-15T10:56:42;2.10;;;1.10;;
39020;SDS011;25188;51.958;5.842;2023-04-15T10:59:15;2.97;;;1.23;;
39020;SDS011;25188;51.958;5.842;2023-04-15T11:01:53;2.47;;;0.90;;
39020;SDS011;25188;51.958;5.842;2023-04-15T11:13:31;4.35;;;1.40;;
39020;SDS011;25188;51.958;5.842;2023-04-15T11:18:20;2.33;;;0.75;;
39020;SDS011;25188;51.958;5.842;2023-04-15T11:20:53;2.05;;;0.50;;
39020;SDS011;25188;51.958;5.842;2023-04-15T11:23:33;1.90;;;0.70;;
39020;SDS011;25188;51.958;5.842;2023-04-15T11:26:02;2.63;;;0.70;;
39020;SDS011;25188;51.958;5.842;2023-04-15T11:28:31;1.92;;;0.82;;
39020;SDS011;25188;51.958;5.842;2023-04-15T11:30:57;2.50;;;0.82;;
39020;SDS011;25188;51.958;5.842;2023-04-15T11:33:29;1.77;;;0.70;;
39020;SDS011;25188;51.958;5.842;2023-04-15T11:35:55;2.97;;;0.80;;
39020;SDS011;25188;51.958;5.842;2023-04-15T11:38:21;1.70;;;0.65;;
39020;SDS011;25188;51.958;5.842;2023-04-15T11:40:47;2.05;;;0.70;;
39020;SDS011;25188;51.958;5.842;2023-04-15T11:43:20;3.30;;;0.80;;
39020;SDS011;25188;51.958;5.842;2023-04-15T11:45:55;2.72;;;0.85;;
39020;SDS011;25188;51.958;5.842;2023-04-15T11:48:25;1.88;;;0.52;;
39020;SDS011;25188;51.958;5.842;2023-04-15T11:50:53;1.77;;;0.60;;
39020;SDS011;25188;51.958;5.842;2023-04-15T11:53:20;1.55;;;0.70;;
39020;SDS011;25188;51.958;5.842;2023-04-15T11:55:59;2.65;;;0.70;;
39020;SDS011;25188;51.958;5.842;2023-04-15T11:58:25;2.08;;;0.60;;
39020;SDS011;25188;51.958;5.842;2023-04-15T12:00:58;3.00;;;0.50;;
39020;SDS011;25188;51.958;5.842;2023-04-15T12:13:52;2.10;;;0.60;;
39020;SDS011;25188;51.958;5.842;2023-04-15T12:16:32;1.80;;;0.35;;
39020;SDS011;25188;51.958;5.842;2023-04-15T12:18:59;1.75;;;0.43;;
39020;SDS011;25188;51.958;5.842;2023-04-15T12:21:32;2.08;;;0.50;;
39020;SDS011;25188;51.958;5.842;2023-04-15T12:24:01;1.55;;;0.47;;
39020;SDS011;25188;51.958;5.842;2023-04-15T12:26:31;1.75;;;0.60;;
39020;SDS011;25188;51.958;5.842;2023-04-15T12:29:02;0.93;;;0.30;;
39020;SDS011;25188;51.958;5.842;2023-04-15T12:31:32;2.00;;;0.40;;
39020;SDS011;25188;51.958;5.842;2023-04-15T12:33:59;1.50;;;0.60;;
39020;SDS011;25188;51.958;5.842;2023-04-15T12:36:26;1.55;;;0.50;;
39020;SDS011;25188;51.958;5.842;2023-04-15T12:38:52;1.20;;;0.50;;
39020;SDS011;25188;51.958;5.842;2023-04-15T12:41:21;2.05;;;0.50;;
39020;SDS011;25188;51.958;5.842;2023-04-15T12:43:48;1.85;;;0.60;;
39020;SDS011;25188;51.958;5.842;2023-04-15T12:46:14;1.88;;;0.57;;
39020;SDS011;25188;51.958;5.842;2023-04-15T12:48:40;2.35;;;0.60;;
39020;SDS011;25188;51.958;5.842;2023-04-15T12:51:06;3.35;;;0.90;;
39020;SDS011;25188;51.958;5.842;2023-04-15T12:53:32;3.25;;;0.90;;
39020;SDS011;25188;51.958;5.842;2023-04-15T12:55:58;2.15;;;1.00;;
39020;SDS011;25188;51.958;5.842;2023-04-15T12:58:23;4.10;;;0.80;;
39020;SDS011;25188;51.958;5.842;2023-04-15T13:00:49;2.00;;;0.75;;
39020;SDS011;25188;51.958;5.842;2023-04-15T13:03:15;3.20;;;0.80;;
39020;SDS011;25188;51.958;5.842;2023-04-15T13:05:41;2.75;;;0.60;;
39020;SDS011;25188;51.958;5.842;2023-04-15T13:08:07;2.55;;;0.60;;
39020;SDS011;25188;51.958;5.842;2023-04-15T13:10:34;1.95;;;0.40;;
39020;SDS011;25188;51.958;5.842;2023-04-15T13:13:03;4.00;;;0.60;;
39020;SDS011;25188;51.958;5.842;2023-04-15T13:15:29;1.60;;;0.45;;
39020;SDS011;25188;51.958;5.842;2023-04-15T13:17:55;0.93;;;0.50;;
39020;SDS011;25188;51.958;5.842;2023-04-15T13:20:21;0.88;;;0.35;;
39020;SDS011;25188;51.958;5.842;2023-04-15T13:22:46;1.02;;;0.40;;
39020;SDS011;25188;51.958;5.842;2023-04-15T13:25:12;3.47;;;0.75;;
39020;SDS011;25188;51.958;5.842;2023-04-15T13:27:38;2.58;;;0.50;;
39020;SDS011;25188;51.958;5.842;2023-04-15T13:30:04;1.58;;;0.40;;
39020;SDS011;25188;51.958;5.842;2023-04-15T13:32:32;3.15;;;0.30;;
39020;SDS011;25188;51.958;5.842;2023-04-15T13:34:58;2.38;;;0.30;;
39020;SDS011;25188;51.958;5.842;2023-04-15T13:37:27;3.17;;;0.30;;
39020;SDS011;25188;51.958;5.842;2023-04-15T13:39:54;1.88;;;0.40;;
39020;SDS011;25188;51.958;5.842;2023-04-15T13:42:20;1.33;;;0.35;;
39020;SDS011;25188;51.958;5.842;2023-04-15T13:44:48;1.30;;;0.30;;
39020;SDS011;25188;51.958;5.842;2023-04-15T13:47:18;1.10;;;0.40;;
39020;SDS011;25188;51.958;5.842;2023-04-15T13:49:44;4.22;;;0.30;;
39020;SDS011;25188;51.958;5.842;2023-04-15T13:52:10;2.15;;;0.40;;
39020;SDS011;25188;51.958;5.842;2023-04-15T13:54:36;0.90;;;0.40;;
39020;SDS011;25188;51.958;5.842;2023-04-15T13:57:02;1.65;;;0.40;;
39020;SDS011;25188;51.958;5.842;2023-04-15T13:59:28;1.13;;;0.40;;
39020;SDS011;25188;51.958;5.842;2023-04-15T14:01:54;2.65;;;0.40;;
39020;SDS011;25188;51.958;5.842;2023-04-15T14:04:20;1.15;;;0.20;;
39020;SDS011;25188;51.958;5.842;2023-04-15T14:06:45;1.45;;;0.30;;
39020;SDS011;25188;51.958;5.842;2023-04-15T14:09:11;2.45;;;0.52;;
39020;SDS011;25188;51.958;5.842;2023-04-15T14:11:37;2.05;;;0.45;;
39020;SDS011;25188;51.958;5.842;2023-04-15T14:14:03;2.47;;;0.30;;
39020;SDS011;25188;51.958;5.842;2023-04-15T14:16:29;1.98;;;0.63;;
39020;SDS011;25188;51.958;5.842;2023-04-15T14:18:57;3.40;;;0.50;;
39020;SDS011;25188;51.958;5.842;2023-04-15T14:21:23;2.30;;;0.22;;
39020;SDS011;25188;51.958;5.842;2023-04-15T14:23:50;2.58;;;0.40;;
39020;SDS011;25188;51.958;5.842;2023-04-15T14:26:16;2.47;;;0.65;;
39020;SDS011;25188;51.958;5.842;2023-04-15T14:28:41;1.63;;;0.55;;
39020;SDS011;25188;51.958;5.842;2023-04-15T14:31:09;1.73;;;0.50;;
39020;SDS011;25188;51.958;5.842;2023-04-15T14:33:35;2.85;;;0.40;;
39020;SDS011;25188;51.958;5.842;2023-04-15T14:36:00;1.00;;;0.30;;
39020;SDS011;25188;51.958;5.842;2023-04-15T14:38:26;1.25;;;0.40;;
39020;SDS011;25188;51.958;5.842;2023-04-15T14:40:52;0.70;;;0.40;;
39020;SDS011;25188;51.958;5.842;2023-04-15T14:43:17;2.80;;;0.40;;
39020;SDS011;25188;51.958;5.842;2023-04-15T14:45:43;2.95;;;0.50;;
39020;SDS011;25188;51.958;5.842;2023-04-15T14:48:08;3.33;;;0.75;;
39020;SDS011;25188;51.958;5.842;2023-04-15T14:50:36;2.47;;;0.60;;
39020;SDS011;25188;51.958;5.842;2023-04-15T14:53:02;1.23;;;0.50;;
39020;SDS011;25188;51.958;5.842;2023-04-15T14:55:27;1.13;;;0.30;;
39020;SDS011;25188;51.958;5.842;2023-04-15T14:57:53;3.05;;;0.70;;
39020;SDS011;25188;51.958;5.842;2023-04-15T15:00:19;1.40;;;0.47;;
39020;SDS011;25188;51.958;5.842;2023-04-15T15:02:44;2.72;;;0.70;;
39020;SDS011;25188;51.958;5.842;2023-04-15T15:05:11;3.28;;;0.60;;
39020;SDS011;25188;51.958;5.842;2023-04-15T15:07:37;2.88;;;0.70;;
39020;SDS011;25188;51.958;5.842;2023-04-15T15:10:04;2.92;;;0.60;;